Time;durP1;ratioP1;P1;durP2;ratioP2;P2;SDS_P1;SDS_P2;PMS_P1;PMS_P2;Temp;Humidity;BMP_temperature;BMP_pressure;BME280_temperature;BME280_humidity;BME280_pressure;Samples;Min_cycle;Max_cycle;Signal;HPM_P1;HPM_P2
2021/07/28 00:00:54;;;;;;;6.00;5.20;;;;;;;;;;5033227;28;20468;-56
2021/07/28 00:03:21;;;;;;;6.07;5.40;;;;;;;;;;5033483;28;20444;-56
2021/07/28 00:05:48;;;;;;;10.73;6.07;;;;;;;;;;5033258;28;20445;-57
2021/07/28 00:08:16;;;;;;;10.30;6.23;;;;;;;;;;5033326;28;20449;-56
2021/07/28 00:10:43;;;;;;;10.13;5.50;;;;;;;;;;5033381;28;20894;-56
2021/07/28 00:13:10;;;;;;;6.00;4.80;;;;;;;;;;5033396;28;20472;-56
2021/07/28 00:15:39;;;;;;;10.73;5.57;;;;;;;;;;5033605;28;20441;-56
2021/07/28 00:18:13;;;;;;;10.17;5.70;;;;;;;;;;5033308;28;20536;-56
2021/07/28 00:23:25;;;;;;;7.20;6.50;;;;;;;;;;5034287;28;20931;-56
2021/07/28 00:25:52;;;;;;;5.20;4.63;;;;;;;;;;5037373;28;20476;-56
2021/07/28 00:28:19;;;;;;;6.07;5.27;;;;;;;;;;5037377;28;20552;-56
2021/07/28 00:30:48;;;;;;;6.97;6.27;;;;;;;;;;5037038;28;20944;-57
2021/07/28 00:33:15;;;;;;;6.10;5.00;;;;;;;;;;5037165;28;20554;-56
2021/07/28 00:35:42;;;;;;;5.97;5.03;;;;;;;;;;5037063;28;20490;-56
2021/07/28 00:38:09;;;;;;;6.40;5.43;;;;;;;;;;5037481;28;20498;-57
2021/07/28 00:40:37;;;;;;;7.03;5.60;;;;;;;;;;5037538;28;20886;-57
2021/07/28 00:43:11;;;;;;;6.47;4.93;;;;;;;;;;5037069;28;20994;-56
2021/07/28 00:45:39;;;;;;;8.13;5.80;;;;;;;;;;5037828;28;20807;-56
2021/07/28 00:48:09;;;;;;;6.53;5.93;;;;;;;;;;5037143;28;20475;-57
2021/07/28 00:50:36;;;;;;;8.00;6.07;;;;;;;;;;5037145;28;20984;-57
2021/07/28 00:53:04;;;;;;;9.13;6.20;;;;;;;;;;5036769;28;20523;-57
2021/07/28 00:55:31;;;;;;;8.20;6.07;;;;;;;;;;5036507;28;20502;-57
2021/07/28 00:58:00;;;;;;;6.17;5.17;;;;;;;;;;5036638;28;21031;-57
2021/07/28 01:00:28;;;;;;;7.33;6.60;;;;;;;;;;5036631;28;20551;-57
2021/07/28 01:02:55;;;;;;;6.20;4.90;;;;;;;;;;5036868;28;20503;-58
2021/07/28 01:05:24;;;;;;;6.37;4.73;;;;;;;;;;5036277;28;20506;-57
2021/07/28 01:07:51;;;;;;;7.00;5.10;;;;;;;;;;5037289;28;20436;-57
2021/07/28 01:10:18;;;;;;;6.50;5.43;;;;;;;;;;5036711;28;20460;-57
2021/07/28 01:12:51;;;;;;;6.77;5.30;;;;;;;;;;5035963;28;20860;-57
2021/07/28 01:15:33;;;;;;;6.03;4.90;;;;;;;;;;5036460;28;20512;-58
2021/07/28 01:18:01;;;;;;;6.73;5.63;;;;;;;;;;5036441;28;20780;-57
2021/07/28 01:20:32;;;;;;;12.50;6.07;;;;;;;;;;5035885;28;20543;-58
2021/07/28 01:23:01;;;;;;;7.83;5.77;;;;;;;;;;5035989;28;20421;-58
2021/07/28 01:25:30;;;;;;;5.20;4.70;;;;;;;;;;5036250;28;20457;-58
2021/07/28 01:27:58;;;;;;;5.97;5.37;;;;;;;;;;5035796;28;21020;-57
2021/07/28 01:30:25;;;;;;;11.27;6.13;;;;;;;;;;5060025;22;20488;-60
2021/07/28 01:32:53;;;;;;;12.00;4.87;;;;;;;;;;5036148;28;20620;-59
2021/07/28 01:35:21;;;;;;;6.50;5.70;;;;;;;;;;5037332;28;20514;-61
2021/07/28 01:37:48;;;;;;;6.80;5.30;;;;;;;;;;5035704;28;20449;-61
2021/07/28 01:40:15;;;;;;;10.17;5.80;;;;;;;;;;5035907;28;20522;-61
2021/07/28 01:42:44;;;;;;;9.00;5.70;;;;;;;;;;5036173;28;20453;-61
2021/07/28 01:45:12;;;;;;;9.43;5.47;;;;;;;;;;5035628;28;20453;-63
2021/07/28 01:47:40;;;;;;;8.53;5.37;;;;;;;;;;5037013;28;20506;-63
2021/07/28 01:50:08;;;;;;;7.53;5.77;;;;;;;;;;5035881;28;20469;-63
2021/07/28 01:52:35;;;;;;;6.10;5.47;;;;;;;;;;5035567;28;20453;-62
2021/07/28 01:55:03;;;;;;;6.40;5.57;;;;;;;;;;5035679;28;20655;-62
2021/07/28 01:57:30;;;;;;;6.03;5.43;;;;;;;;;;5035651;28;20843;-60
2021/07/28 02:00:00;;;;;;;8.90;6.80;;;;;;;;;;5035485;28;20526;-62
2021/07/28 02:02:31;;;;;;;9.33;5.90;;;;;;;;;;5035255;28;20460;-62
2021/07/28 02:04:59;;;;;;;9.97;6.37;;;;;;;;;;5036147;28;20910;-62
2021/07/28 02:07:26;;;;;;;6.30;5.23;;;;;;;;;;5035413;28;20499;-62
2021/07/28 02:09:53;;;;;;;6.70;4.83;;;;;;;;;;5036166;28;20546;-61
2021/07/28 02:12:21;;;;;;;5.70;5.10;;;;;;;;;;5035136;28;20936;-61
2021/07/28 02:14:48;;;;;;;5.53;4.93;;;;;;;;;;5034929;28;20996;-62
2021/07/28 02:17:17;;;;;;;5.53;5.00;;;;;;;;;;5034946;28;20792;-63
2021/07/28 02:19:44;;;;;;;6.77;5.57;;;;;;;;;;5035159;28;20473;-62
2021/07/28 02:22:12;;;;;;;5.73;5.07;;;;;;;;;;5035209;28;20510;-63
2021/07/28 02:24:40;;;;;;;6.30;4.27;;;;;;;;;;5035226;28;20532;-63
2021/07/28 02:27:07;;;;;;;9.67;5.40;;;;;;;;;;5035130;28;20449;-62
2021/07/28 02:29:35;;;;;;;6.83;5.83;;;;;;;;;;5034619;28;20489;-62
2021/07/28 02:32:03;;;;;;;8.70;6.27;;;;;;;;;;5034726;28;20905;-62
2021/07/28 02:34:32;;;;;;;8.40;6.77;;;;;;;;;;5034938;28;20512;-62
2021/07/28 02:37:00;;;;;;;11.20;7.10;;;;;;;;;;5034591;28;20453;-62
2021/07/28 02:39:27;;;;;;;8.57;5.47;;;;;;;;;;5035045;28;20502;-62
2021/07/28 02:41:54;;;;;;;7.50;5.13;;;;;;;;;;5041637;28;20444;-62
2021/07/28 02:44:22;;;;;;;7.10;5.00;;;;;;;;;;5041020;28;20453;-62
2021/07/28 02:46:49;;;;;;;7.07;5.40;;;;;;;;;;5038364;28;20441;-62
2021/07/28 02:49:16;;;;;;;9.90;6.47;;;;;;;;;;5039554;28;20445;-62
2021/07/28 02:51:45;;;;;;;9.97;5.80;;;;;;;;;;5035364;28;20449;-62
2021/07/28 02:54:12;;;;;;;6.77;4.93;;;;;;;;;;5034861;28;20473;-62
2021/07/28 02:56:40;;;;;;;9.83;5.57;;;;;;;;;;5034574;28;20449;-61
2021/07/28 02:59:07;;;;;;;7.40;5.00;;;;;;;;;;5034334;28;20959;-62
2021/07/28 03:01:34;;;;;;;6.27;5.23;;;;;;;;;;5034763;28;20461;-62
2021/07/28 03:04:02;;;;;;;6.73;5.80;;;;;;;;;;5034495;28;20445;-62
2021/07/28 03:06:29;;;;;;;7.10;5.90;;;;;;;;;;5034491;28;20452;-63
2021/07/28 03:08:57;;;;;;;9.50;5.00;;;;;;;;;;5033999;28;21006;-63
2021/07/28 03:11:25;;;;;;;6.00;5.13;;;;;;;;;;5033878;28;20882;-63
2021/07/28 03:13:52;;;;;;;7.43;5.30;;;;;;;;;;5033771;28;20476;-63
2021/07/28 03:16:19;;;;;;;6.50;5.00;;;;;;;;;;5034107;28;20499;-63
2021/07/28 03:18:46;;;;;;;10.67;5.90;;;;;;;;;;5034281;28;20511;-62
2021/07/28 03:21:14;;;;;;;8.90;6.17;;;;;;;;;;5034255;28;20560;-63
2021/07/28 03:23:41;;;;;;;9.40;5.77;;;;;;;;;;5034900;28;20501;-62
2021/07/28 03:26:09;;;;;;;10.70;6.20;;;;;;;;;;5034220;28;20804;-62
2021/07/28 03:28:37;;;;;;;8.77;6.17;;;;;;;;;;5034034;28;20452;-62
2021/07/28 03:31:04;;;;;;;10.60;6.23;;;;;;;;;;5033679;28;20962;-63
2021/07/28 03:33:31;;;;;;;6.03;4.80;;;;;;;;;;5033417;28;20830;-62
2021/07/28 03:35:59;;;;;;;5.97;5.20;;;;;;;;;;5033788;28;20453;-62
2021/07/28 03:38:26;;;;;;;7.20;5.53;;;;;;;;;;5033705;28;20449;-62
2021/07/28 03:40:53;;;;;;;7.53;4.87;;;;;;;;;;5033641;28;20830;-64
2021/07/28 03:43:22;;;;;;;8.80;5.47;;;;;;;;;;5033854;28;20440;-62
2021/07/28 03:45:49;;;;;;;8.83;4.83;;;;;;;;;;5033619;28;20437;-63
2021/07/28 03:48:16;;;;;;;6.50;5.90;;;;;;;;;;5033315;28;20535;-61
2021/07/28 03:50:43;;;;;;;9.03;5.70;;;;;;;;;;5033459;28;20519;-63
2021/07/28 03:53:11;;;;;;;8.90;5.63;;;;;;;;;;5034291;28;20503;-62
2021/07/28 03:55:38;;;;;;;7.00;5.40;;;;;;;;;;5034292;28;20547;-62
2021/07/28 03:58:05;;;;;;;10.20;5.60;;;;;;;;;;5033090;28;20457;-63
2021/07/28 04:00:34;;;;;;;6.90;5.00;;;;;;;;;;5033233;28;20519;-61
2021/07/28 04:03:01;;;;;;;6.20;5.60;;;;;;;;;;5033418;28;20937;-61
2021/07/28 04:08:23;;;;;;;5.73;4.57;;;;;;;;;;5091801;28;20564;-63
2021/07/28 04:10:50;;;;;;;6.80;5.17;;;;;;;;;;5090963;28;20462;-63
2021/07/28 04:13:18;;;;;;;6.60;5.53;;;;;;;;;;5090687;28;20508;-62
2021/07/28 04:15:45;;;;;;;6.60;4.70;;;;;;;;;;5090971;28;20530;-63
2021/07/28 04:18:12;;;;;;;5.77;5.10;;;;;;;;;;5091017;28;20964;-63
2021/07/28 04:20:39;;;;;;;9.10;5.80;;;;;;;;;;5092285;28;20467;-63
2021/07/28 04:23:06;;;;;;;10.00;5.60;;;;;;;;;;5093867;28;20442;-62
2021/07/28 04:25:35;;;;;;;6.13;4.87;;;;;;;;;;5094167;28;20503;-63
2021/07/28 04:28:02;;;;;;;5.40;4.90;;;;;;;;;;5091860;28;20552;-63
2021/07/28 04:30:29;;;;;;;12.97;4.97;;;;;;;;;;5091880;28;20881;-63
2021/07/28 04:32:57;;;;;;;7.33;5.23;;;;;;;;;;5091137;28;20500;-62
2021/07/28 04:35:24;;;;;;;5.10;4.60;;;;;;;;;;5091109;28;20450;-62
2021/07/28 04:37:51;;;;;;;6.07;5.50;;;;;;;;;;5090247;28;20443;-63
2021/07/28 04:40:19;;;;;;;10.87;4.70;;;;;;;;;;5090087;28;20458;-62
2021/07/28 04:42:47;;;;;;;6.20;5.33;;;;;;;;;;5089965;28;20446;-63
2021/07/28 04:45:15;;;;;;;10.60;5.10;;;;;;;;;;5089931;28;20881;-61
2021/07/28 04:47:42;;;;;;;10.87;6.40;;;;;;;;;;5090164;28;20572;-64
2021/07/28 04:50:10;;;;;;;8.30;5.60;;;;;;;;;;5089973;28;20807;-64
2021/07/28 04:52:37;;;;;;;5.73;5.13;;;;;;;;;;5090467;28;20434;-63
2021/07/28 04:55:05;;;;;;;5.57;4.53;;;;;;;;;;5089936;28;20861;-62
2021/07/28 04:57:32;;;;;;;7.27;5.30;;;;;;;;;;5091429;28;20511;-62
2021/07/28 05:00:01;;;;;;;7.57;5.63;;;;;;;;;;5096385;28;20478;-64
2021/07/28 05:02:28;;;;;;;6.20;4.60;;;;;;;;;;5092041;28;20442;-63
2021/07/28 05:04:55;;;;;;;8.60;4.47;;;;;;;;;;5091311;28;20465;-63
2021/07/28 05:07:23;;;;;;;7.00;4.50;;;;;;;;;;5090852;28;20484;-63
2021/07/28 05:09:50;;;;;;;6.40;5.10;;;;;;;;;;5091218;28;21050;-63
2021/07/28 05:12:17;;;;;;;9.10;5.23;;;;;;;;;;5091342;28;20507;-63
2021/07/28 05:14:44;;;;;;;7.10;4.60;;;;;;;;;;5091543;28;20507;-62
2021/07/28 05:17:13;;;;;;;6.03;4.63;;;;;;;;;;5091900;28;20449;-63
2021/07/28 05:19:41;;;;;;;6.37;5.27;;;;;;;;;;5077751;28;20477;-63
2021/07/28 05:22:08;;;;;;;5.00;4.30;;;;;;;;;;5076478;28;20450;-62
2021/07/28 05:24:35;;;;;;;6.20;5.60;;;;;;;;;;5076117;28;20940;-62
2021/07/28 05:27:03;;;;;;;7.07;4.60;;;;;;;;;;5076153;28;20540;-64
2021/07/28 05:29:30;;;;;;;7.07;5.17;;;;;;;;;;5075943;28;20449;-64
2021/07/28 05:31:57;;;;;;;5.97;5.07;;;;;;;;;;5075775;28;20941;-64
2021/07/28 05:34:26;;;;;;;5.90;4.30;;;;;;;;;;5076758;28;20445;-62
2021/07/28 05:36:57;;;;;;;4.93;4.53;;;;;;;;;;5076010;28;20573;-63
2021/07/28 05:39:25;;;;;;;4.90;4.40;;;;;;;;;;5075817;28;20435;-63
2021/07/28 05:41:52;;;;;;;6.70;4.53;;;;;;;;;;5075930;28;20553;-62
2021/07/28 05:44:19;;;;;;;7.00;4.90;;;;;;;;;;5086217;28;20509;-62
2021/07/28 05:46:46;;;;;;;5.23;4.23;;;;;;;;;;5090916;28;20481;-64
2021/07/28 05:49:13;;;;;;;7.37;4.60;;;;;;;;;;5090363;28;20493;-64
2021/07/28 05:51:42;;;;;;;6.90;4.73;;;;;;;;;;5091324;28;20470;-64
2021/07/28 05:54:09;;;;;;;9.30;4.80;;;;;;;;;;5085162;28;20455;-63
2021/07/28 05:56:37;;;;;;;8.50;4.70;;;;;;;;;;5079858;28;20857;-64
2021/07/28 05:59:04;;;;;;;7.83;4.50;;;;;;;;;;5078507;28;20449;-65
2021/07/28 06:01:31;;;;;;;7.13;4.80;;;;;;;;;;5076667;28;20993;-63
2021/07/28 06:03:58;;;;;;;5.53;4.80;;;;;;;;;;5077908;28;20446;-63
2021/07/28 06:06:26;;;;;;;8.67;4.33;;;;;;;;;;5078607;28;20447;-65
2021/07/28 06:08:55;;;;;;;12.13;5.13;;;;;;;;;;5084007;28;20530;-63
2021/07/28 06:11:22;;;;;;;6.40;5.57;;;;;;;;;;5080346;28;20519;-64
2021/07/28 06:13:50;;;;;;;6.80;4.97;;;;;;;;;;5078593;28;20446;-63
2021/07/28 06:16:17;;;;;;;8.83;5.17;;;;;;;;;;5077003;28;20491;-63
2021/07/28 06:18:44;;;;;;;5.70;5.10;;;;;;;;;;5075896;28;20462;-63
2021/07/28 06:21:12;;;;;;;5.57;5.07;;;;;;;;;;5075929;28;20470;-63
2021/07/28 06:23:39;;;;;;;5.60;5.00;;;;;;;;;;5075535;28;20452;-62
2021/07/28 06:26:07;;;;;;;8.20;5.20;;;;;;;;;;5074924;28;20448;-63
2021/07/28 06:28:35;;;;;;;6.33;4.27;;;;;;;;;;5074892;28;20505;-64
2021/07/28 06:31:02;;;;;;;5.90;4.80;;;;;;;;;;5074342;28;20987;-63
2021/07/28 06:33:29;;;;;;;5.53;4.53;;;;;;;;;;5074999;28;21012;-64
2021/07/28 06:35:57;;;;;;;6.40;5.10;;;;;;;;;;5075764;28;20446;-63
2021/07/28 06:38:24;;;;;;;5.10;4.20;;;;;;;;;;5075945;28;20440;-64
2021/07/28 06:40:51;;;;;;;6.10;4.67;;;;;;;;;;5075135;28;20532;-63
2021/07/28 06:43:20;;;;;;;5.17;4.67;;;;;;;;;;5074587;28;21003;-63
2021/07/28 06:45:47;;;;;;;7.47;4.23;;;;;;;;;;5074609;28;20870;-63
2021/07/28 06:48:14;;;;;;;6.50;4.80;;;;;;;;;;5074432;28;20506;-61
2021/07/28 06:50:42;;;;;;;7.53;5.77;;;;;;;;;;5074692;28;20486;-62
2021/07/28 06:53:09;;;;;;;5.27;4.30;;;;;;;;;;5074407;28;20452;-63
2021/07/28 06:55:36;;;;;;;5.40;4.57;;;;;;;;;;5076523;28;20500;-64
2021/07/28 06:58:03;;;;;;;6.10;4.30;;;;;;;;;;5075181;28;20438;-62
2021/07/28 07:00:33;;;;;;;5.30;4.80;;;;;;;;;;5075336;28;20461;-64
2021/07/28 07:03:00;;;;;;;5.63;4.67;;;;;;;;;;5075943;28;20943;-63
2021/07/28 07:05:28;;;;;;;5.37;4.87;;;;;;;;;;5075165;28;20473;-63
2021/07/28 07:07:55;;;;;;;4.80;4.40;;;;;;;;;;5075390;28;20548;-63
2021/07/28 07:10:22;;;;;;;7.97;5.00;;;;;;;;;;5075063;28;20985;-63
2021/07/28 07:12:50;;;;;;;6.37;5.77;;;;;;;;;;5076318;28;21014;-63
2021/07/28 07:15:17;;;;;;;5.70;4.57;;;;;;;;;;5078743;28;20447;-63
2021/07/28 07:17:45;;;;;;;5.70;4.57;;;;;;;;;;5075611;28;20451;-64
2021/07/28 07:20:13;;;;;;;7.13;5.20;;;;;;;;;;5074610;28;20880;-64
2021/07/28 07:22:40;;;;;;;7.17;4.87;;;;;;;;;;5075490;28;20450;-63
2021/07/28 07:25:08;;;;;;;6.40;5.10;;;;;;;;;;5074466;28;20463;-63
2021/07/28 07:27:37;;;;;;;5.83;4.93;;;;;;;;;;5074399;28;20823;-62
2021/07/28 07:30:05;;;;;;;5.63;5.00;;;;;;;;;;5074113;28;20478;-62
2021/07/28 07:32:32;;;;;;;5.27;4.70;;;;;;;;;;5072050;22;20563;-56
2021/07/28 07:35:01;;;;;;;5.73;4.93;;;;;;;;;;5033318;28;20511;-57
2021/07/28 07:37:28;;;;;;;6.23;5.03;;;;;;;;;;5032992;28;20500;-57
2021/07/28 07:39:55;;;;;;;5.27;4.60;;;;;;;;;;5032696;28;20440;-56
2021/07/28 07:42:23;;;;;;;5.40;4.90;;;;;;;;;;5032223;28;20824;-55
2021/07/28 07:44:50;;;;;;;6.87;4.90;;;;;;;;;;5032774;28;20456;-55
2021/07/28 07:47:18;;;;;;;7.40;5.37;;;;;;;;;;5032565;28;20518;-55
2021/07/28 07:49:45;;;;;;;5.93;5.30;;;;;;;;;;5032408;28;20445;-54
2021/07/28 07:52:14;;;;;;;5.03;4.50;;;;;;;;;;5032468;28;20522;-54
2021/07/28 07:54:41;;;;;;;8.23;5.07;;;;;;;;;;5032594;28;20518;-54
2021/07/28 07:57:08;;;;;;;5.87;5.30;;;;;;;;;;5033025;28;20503;-55
2021/07/28 07:59:36;;;;;;;6.20;5.00;;;;;;;;;;5032669;28;20921;-55
2021/07/28 08:02:03;;;;;;;6.10;5.03;;;;;;;;;;5032967;28;20476;-55
2021/07/28 08:04:30;;;;;;;8.00;6.30;;;;;;;;;;5032737;28;20933;-56
2021/07/28 08:06:57;;;;;;;5.10;4.60;;;;;;;;;;5032590;28;20452;-55
2021/07/28 08:09:26;;;;;;;12.53;5.07;;;;;;;;;;5032821;28;20479;-56
2021/07/28 08:11:54;;;;;;;5.17;4.27;;;;;;;;;;5032928;28;20472;-56
2021/07/28 08:14:21;;;;;;;7.93;4.60;;;;;;;;;;5033104;28;20455;-56
2021/07/28 08:16:49;;;;;;;7.47;4.37;;;;;;;;;;5032602;28;20933;-56
2021/07/28 08:19:16;;;;;;;5.83;4.40;;;;;;;;;;5032864;28;20495;-56
2021/07/28 08:21:44;;;;;;;6.27;4.30;;;;;;;;;;5032733;28;20472;-56
2021/07/28 08:24:12;;;;;;;5.73;4.87;;;;;;;;;;5032746;28;20480;-56
2021/07/28 08:26:40;;;;;;;7.53;4.87;;;;;;;;;;5032521;28;20453;-56
2021/07/28 08:29:07;;;;;;;5.00;4.50;;;;;;;;;;5032833;28;20551;-56
2021/07/28 08:31:35;;;;;;;4.77;4.30;;;;;;;;;;5032925;28;20477;-55
2021/07/28 08:34:02;;;;;;;6.27;5.30;;;;;;;;;;5032884;28;20445;-56
2021/07/28 08:36:29;;;;;;;5.70;4.77;;;;;;;;;;5032524;28;20936;-56
2021/07/28 08:38:56;;;;;;;5.67;4.57;;;;;;;;;;5032673;28;20437;-55
2021/07/28 08:41:24;;;;;;;5.77;5.20;;;;;;;;;;5032180;28;20920;-56
2021/07/28 08:43:55;;;;;;;8.90;5.30;;;;;;;;;;5032576;28;20520;-56
2021/07/28 08:46:25;;;;;;;6.33;4.83;;;;;;;;;;5032755;28;20435;-57
2021/07/28 08:48:53;;;;;;;6.00;5.50;;;;;;;;;;5032346;28;20467;-56
2021/07/28 08:51:20;;;;;;;6.03;5.37;;;;;;;;;;5032976;28;20463;-57
2021/07/28 08:53:47;;;;;;;5.87;5.27;;;;;;;;;;5034237;28;20445;-54
2021/07/28 08:56:15;;;;;;;6.17;4.73;;;;;;;;;;5036533;28;20474;-56
2021/07/28 08:58:42;;;;;;;6.07;5.47;;;;;;;;;;5037344;28;20509;-57
2021/07/28 09:01:10;;;;;;;5.73;5.10;;;;;;;;;;5036285;28;20446;-56
2021/07/28 09:03:39;;;;;;;5.00;4.60;;;;;;;;;;5036321;28;20445;-57
2021/07/28 09:06:07;;;;;;;6.93;5.60;;;;;;;;;;5036266;28;20453;-55
2021/07/28 09:08:35;;;;;;;5.83;5.23;;;;;;;;;;5035881;28;20531;-54
2021/07/28 09:11:03;;;;;;;6.90;6.03;;;;;;;;;;5036366;28;20444;-55
2021/07/28 09:13:32;;;;;;;5.57;5.00;;;;;;;;;;5036212;28;20536;-55
2021/07/28 09:16:00;;;;;;;5.97;5.37;;;;;;;;;;5036006;28;20493;-55
2021/07/28 09:18:29;;;;;;;6.60;5.87;;;;;;;;;;5036355;28;20441;-56
2021/07/28 09:20:56;;;;;;;6.70;5.27;;;;;;;;;;5035781;28;20858;-55
2021/07/28 09:23:23;;;;;;;6.10;5.23;;;;;;;;;;5035564;28;20540;-55
2021/07/28 09:25:54;;;;;;;7.63;5.13;;;;;;;;;;5035492;28;20447;-56
2021/07/28 09:28:22;;;;;;;6.73;5.20;;;;;;;;;;5036214;28;20476;-55
2021/07/28 09:30:50;;;;;;;5.33;4.80;;;;;;;;;;5042853;28;20455;-55
2021/07/28 09:33:19;;;;;;;5.33;4.83;;;;;;;;;;5043582;28;20531;-56
2021/07/28 09:36:10;;;;;;;8.80;5.30;;;;;;;;;;5042327;28;20455;-55
2021/07/28 09:38:43;;;;;;;5.37;4.90;;;;;;;;;;5038317;28;20452;-58
2021/07/28 09:41:14;;;;;;;6.03;4.93;;;;;;;;;;5035367;28;20454;-57
2021/07/28 09:43:44;;;;;;;5.23;4.30;;;;;;;;;;5035279;28;20491;-57
2021/07/28 09:46:21;;;;;;;5.40;4.90;;;;;;;;;;5035085;28;20535;-58
2021/07/28 09:48:48;;;;;;;4.70;4.30;;;;;;;;;;5035176;28;20511;-57
2021/07/28 09:51:22;;;;;;;4.73;4.33;;;;;;;;;;5035054;28;20447;-57
2021/07/28 09:53:54;;;;;;;4.27;3.87;;;;;;;;;;5034645;28;20436;-56
2021/07/28 09:56:37;;;;;;;5.17;4.67;;;;;;;;;;5035048;28;20712;-57
2021/07/28 09:59:05;;;;;;;5.00;4.53;;;;;;;;;;5034936;28;20488;-57
2021/07/28 10:01:33;;;;;;;5.30;4.80;;;;;;;;;;5034524;28;20533;-58
2021/07/28 10:04:01;;;;;;;4.80;4.40;;;;;;;;;;5034747;28;20535;-57
2021/07/28 10:06:35;;;;;;;7.47;5.43;;;;;;;;;;5034566;28;21014;-57
2021/07/28 10:09:03;;;;;;;8.50;4.70;;;;;;;;;;5035086;28;20734;-57
2021/07/28 10:11:32;;;;;;;6.40;4.70;;;;;;;;;;5034562;28;20488;-57
2021/07/28 10:13:59;;;;;;;4.63;4.23;;;;;;;;;;5034360;28;20450;-57
2021/07/28 10:16:27;;;;;;;4.80;4.30;;;;;;;;;;5034419;28;20454;-57
2021/07/28 10:18:55;;;;;;;4.80;4.40;;;;;;;;;;5033971;28;20446;-57
2021/07/28 10:21:23;;;;;;;6.57;5.17;;;;;;;;;;5034593;28;20644;-57
2021/07/28 10:23:50;;;;;;;6.20;5.60;;;;;;;;;;5034031;28;20605;-59
2021/07/28 10:26:20;;;;;;;5.20;4.30;;;;;;;;;;5033724;28;20447;-57
2021/07/28 10:28:49;;;;;;;5.00;4.40;;;;;;;;;;5033737;28;20484;-58
2021/07/28 10:31:17;;;;;;;5.13;4.70;;;;;;;;;;5033754;28;20450;-58
2021/07/28 10:33:49;;;;;;;4.87;4.47;;;;;;;;;;5034118;28;20437;-59
2021/07/28 10:36:17;;;;;;;4.50;4.10;;;;;;;;;;5034181;28;20456;-58
2021/07/28 10:38:57;;;;;;;5.13;4.63;;;;;;;;;;5034019;28;20515;-59
2021/07/28 10:41:43;;;;;;;4.80;4.30;;;;;;;;;;5033515;28;20983;-58
2021/07/28 10:44:13;;;;;;;5.10;4.60;;;;;;;;;;5033753;28;20513;-58
2021/07/28 10:47:16;;;;;;;5.23;4.30;;;;;;;;;;5034029;28;20428;-58
2021/07/28 10:49:48;;;;;;;9.00;4.57;;;;;;;;;;4972750;28;20482;-58
2021/07/28 10:52:30;;;;;;;4.50;4.10;;;;;;;;;;4973075;28;20495;-58
2021/07/28 10:55:27;;;;;;;5.20;4.80;;;;;;;;;;5008820;28;20494;-59
2021/07/28 10:58:12;;;;;;;5.23;4.50;;;;;;;;;;5033808;28;20432;-58
2021/07/28 11:00:52;;;;;;;5.33;4.63;;;;;;;;;;5033459;28;20424;-58
2021/07/28 11:03:20;;;;;;;4.80;4.30;;;;;;;;;;5033718;28;20475;-58
2021/07/28 11:05:52;;;;;;;4.43;4.03;;;;;;;;;;5033589;28;20448;-58
2021/07/28 11:08:20;;;;;;;5.10;4.60;;;;;;;;;;5033122;28;20938;-58
2021/07/28 11:10:52;;;;;;;6.10;4.80;;;;;;;;;;5033015;28;20650;-58
2021/07/28 11:13:20;;;;;;;5.27;4.70;;;;;;;;;;5033240;28;20474;-58
2021/07/28 11:15:56;;;;;;;6.23;4.70;;;;;;;;;;5032844;28;20452;-58
2021/07/28 11:18:36;;;;;;;5.10;3.67;;;;;;;;;;5032959;28;20518;-58
2021/07/28 11:21:11;;;;;;;5.60;4.40;;;;;;;;;;5032873;28;20959;-58
2021/07/28 11:23:42;;;;;;;7.50;4.40;;;;;;;;;;5033159;28;20445;-57
2021/07/28 11:26:15;;;;;;;4.47;3.90;;;;;;;;;;5033035;28;20449;-57
2021/07/28 11:28:44;;;;;;;6.37;3.70;;;;;;;;;;5032809;28;20566;-58
2021/07/28 11:31:13;;;;;;;6.47;4.13;;;;;;;;;;5033406;28;20456;-58
2021/07/28 11:33:41;;;;;;;4.33;4.00;;;;;;;;;;5033895;28;20424;-57
2021/07/28 11:36:08;;;;;;;8.53;4.90;;;;;;;;;;5033931;28;20452;-57
2021/07/28 11:38:37;;;;;;;5.30;3.50;;;;;;;;;;5032814;28;20790;-57
2021/07/28 11:41:05;;;;;;;4.60;4.20;;;;;;;;;;5032751;28;20450;-58
2021/07/28 11:43:33;;;;;;;4.17;3.30;;;;;;;;;;5033317;28;20442;-58
2021/07/28 11:46:02;;;;;;;4.10;3.70;;;;;;;;;;5032707;28;20506;-58
2021/07/28 11:48:32;;;;;;;4.00;3.50;;;;;;;;;;5032789;28;20824;-58
2021/07/28 11:50:59;;;;;;;3.60;3.30;;;;;;;;;;5032873;28;20506;-58
2021/07/28 11:53:26;;;;;;;3.97;3.63;;;;;;;;;;5033528;28;20450;-57
2021/07/28 11:55:56;;;;;;;3.40;3.10;;;;;;;;;;5032894;28;20460;-59
2021/07/28 11:58:23;;;;;;;3.93;3.10;;;;;;;;;;5033066;28;20460;-57
2021/07/28 12:00:50;;;;;;;3.00;2.77;;;;;;;;;;5032552;28;20511;-58
2021/07/28 12:03:24;;;;;;;3.20;2.90;;;;;;;;;;5032571;28;20902;-58
2021/07/28 12:06:00;;;;;;;3.30;3.00;;;;;;;;;;5033192;28;20493;-58
2021/07/28 12:08:31;;;;;;;3.50;3.03;;;;;;;;;;5033030;28;20445;-57
2021/07/28 12:11:06;;;;;;;3.53;3.23;;;;;;;;;;5032388;28;20471;-57
2021/07/28 12:13:46;;;;;;;3.73;3.20;;;;;;;;;;5033128;28;20444;-57
2021/07/28 12:16:13;;;;;;;3.87;3.50;;;;;;;;;;5032589;28;20459;-58
2021/07/28 12:18:49;;;;;;;4.47;3.77;;;;;;;;;;5032934;28;20486;-58
2021/07/28 12:21:17;;;;;;;5.80;3.40;;;;;;;;;;5032970;28;20450;-58
2021/07/28 12:23:51;;;;;;;4.63;3.33;;;;;;;;;;5032490;28;20451;-58
2021/07/28 12:26:19;;;;;;;3.83;3.53;;;;;;;;;;5032194;28;20454;-58
2021/07/28 12:28:50;;;;;;;3.70;3.33;;;;;;;;;;5034254;28;20446;-58
2021/07/28 12:31:27;;;;;;;3.63;3.27;;;;;;;;;;5036506;28;20909;-58
2021/07/28 12:33:54;;;;;;;3.53;3.23;;;;;;;;;;5036579;28;20519;-59
2021/07/28 12:36:30;;;;;;;4.80;3.10;;;;;;;;;;5036450;28;20492;-57
2021/07/28 12:38:57;;;;;;;3.40;2.23;;;;;;;;;;5036503;28;20445;-57
2021/07/28 12:41:24;;;;;;;9.80;2.80;;;;;;;;;;5036589;28;20472;-59
2021/07/28 12:43:52;;;;;;;3.53;2.63;;;;;;;;;;5036521;28;20457;-59
2021/07/28 12:46:19;;;;;;;5.43;2.77;;;;;;;;;;5036702;28;20483;-59
2021/07/28 12:48:47;;;;;;;2.93;2.07;;;;;;;;;;5036681;28;20551;-57
2021/07/28 12:51:14;;;;;;;4.03;2.50;;;;;;;;;;5036249;28;20537;-56
2021/07/28 12:53:43;;;;;;;4.93;3.30;;;;;;;;;;5036667;28;20467;-59
2021/07/28 12:56:10;;;;;;;3.97;3.00;;;;;;;;;;5036154;28;20456;-57
2021/07/28 12:58:37;;;;;;;5.23;3.50;;;;;;;;;;5036082;28;20445;-57
2021/07/28 13:01:04;;;;;;;3.50;2.50;;;;;;;;;;5035839;28;20594;-57
2021/07/28 13:03:34;;;;;;;3.30;2.50;;;;;;;;;;5036234;28;20838;-57
2021/07/28 13:06:06;;;;;;;2.63;2.30;;;;;;;;;;5035790;28;20895;-57
2021/07/28 13:08:34;;;;;;;3.67;2.50;;;;;;;;;;5035952;28;20437;-57
2021/07/28 13:11:02;;;;;;;2.93;2.27;;;;;;;;;;5036005;28;20489;-57
2021/07/28 13:13:29;;;;;;;3.33;2.77;;;;;;;;;;5035927;28;20446;-55
2021/07/28 13:15:59;;;;;;;3.37;3.07;;;;;;;;;;5035567;28;20939;-56
2021/07/28 13:18:27;;;;;;;3.00;2.27;;;;;;;;;;5036232;28;20975;-59
2021/07/28 13:20:54;;;;;;;4.40;2.90;;;;;;;;;;5036114;28;20865;-58
2021/07/28 13:23:22;;;;;;;3.97;2.83;;;;;;;;;;5035597;28;20882;-58
2021/07/28 13:25:49;;;;;;;5.77;2.50;;;;;;;;;;5035970;28;20478;-58
2021/07/28 13:28:18;;;;;;;3.10;2.80;;;;;;;;;;5036653;28;20450;-58
2021/07/28 13:30:45;;;;;;;2.80;2.50;;;;;;;;;;5035839;28;20491;-58
2021/07/28 13:33:12;;;;;;;3.00;2.70;;;;;;;;;;5035288;28;20515;-58
2021/07/28 13:35:40;;;;;;;3.23;2.30;;;;;;;;;;5060392;22;20962;-60
2021/07/28 13:38:08;;;;;;;3.00;2.70;;;;;;;;;;5035956;28;20842;-60
2021/07/28 13:40:35;;;;;;;3.00;2.50;;;;;;;;;;5034586;28;20451;-61
2021/07/28 13:43:02;;;;;;;3.07;2.77;;;;;;;;;;5035311;28;20995;-60
2021/07/28 13:45:32;;;;;;;3.03;2.57;;;;;;;;;;5036416;28;20880;-59
2021/07/28 13:47:59;;;;;;;2.60;2.30;;;;;;;;;;5036003;28;20452;-61
2021/07/28 13:50:26;;;;;;;3.00;2.67;;;;;;;;;;5035397;28;21061;-60
2021/07/28 13:52:54;;;;;;;4.20;3.20;;;;;;;;;;5035509;28;20459;-60
2021/07/28 13:55:21;;;;;;;2.97;2.40;;;;;;;;;;5035603;28;20477;-60
2021/07/28 13:57:48;;;;;;;3.20;2.90;;;;;;;;;;5035958;28;20441;-59
2021/07/28 14:00:16;;;;;;;3.57;3.00;;;;;;;;;;5035564;28;20487;-60
2021/07/28 14:02:46;;;;;;;3.27;2.97;;;;;;;;;;5035374;28;20815;-59
2021/07/28 14:05:13;;;;;;;6.50;2.90;;;;;;;;;;5035397;28;20472;-59
2021/07/28 14:07:41;;;;;;;3.50;3.20;;;;;;;;;;5035768;28;20447;-59
2021/07/28 14:10:09;;;;;;;3.40;3.10;;;;;;;;;;5035898;28;20861;-60
2021/07/28 14:12:38;;;;;;;3.40;3.03;;;;;;;;;;5037027;28;20499;-60
2021/07/28 14:15:06;;;;;;;3.97;3.50;;;;;;;;;;5039360;28;20500;-59
2021/07/28 14:17:34;;;;;;;3.00;2.80;;;;;;;;;;5039313;28;20449;-63
2021/07/28 14:20:02;;;;;;;4.10;3.70;;;;;;;;;;5038721;28;20948;-60
2021/07/28 14:22:31;;;;;;;6.43;3.30;;;;;;;;;;5035970;28;20444;-61
2021/07/28 14:24:58;;;;;;;4.50;3.70;;;;;;;;;;5034769;28;20484;-60
2021/07/28 14:27:25;;;;;;;4.50;3.43;;;;;;;;;;5034546;28;20508;-60
2021/07/28 14:29:53;;;;;;;4.30;3.90;;;;;;;;;;5034941;28;20530;-60
2021/07/28 14:32:20;;;;;;;3.80;3.33;;;;;;;;;;5034310;28;20834;-59
2021/07/28 14:34:48;;;;;;;8.70;3.57;;;;;;;;;;5034107;28;21025;-58
2021/07/28 14:37:16;;;;;;;4.50;4.10;;;;;;;;;;5034476;28;20445;-60
2021/07/28 14:39:44;;;;;;;4.97;4.20;;;;;;;;;;5034209;28;20503;-59
2021/07/28 14:42:11;;;;;;;4.03;3.63;;;;;;;;;;5034141;28;21044;-59
2021/07/28 14:44:38;;;;;;;3.60;3.30;;;;;;;;;;5034288;28;20527;-60
2021/07/28 14:47:06;;;;;;;4.50;3.87;;;;;;;;;;5034267;28;20950;-60
2021/07/28 14:49:33;;;;;;;5.80;4.40;;;;;;;;;;5033997;28;20451;-60
2021/07/28 14:52:00;;;;;;;4.87;3.70;;;;;;;;;;5033603;28;20507;-60
2021/07/28 14:54:29;;;;;;;4.07;3.70;;;;;;;;;;5034297;28;20530;-60
2021/07/28 14:56:56;;;;;;;6.73;4.80;;;;;;;;;;5034070;28;20497;-60